Time;durP1;ratioP1;P1;durP2;ratioP2;P2;SDS_P1;SDS_P2;PMS_P1;PMS_P2;Temp;Humidity;BMP_temperature;BMP_pressure;BME280_temperature;BME280_humidity;BME280_pressure;Samples;Min_cycle;Max_cycle;Signal;HPM_P1;HPM_P2
2022/04/13 00:00:46;;;;;;;4.93;4.43;;;9.30;93.70;;;;;;5057836;28;20177;-89
2022/04/13 00:03:12;;;;;;;5.33;4.83;;;9.30;93.80;;;;;;5076006;28;20177;-89
2022/04/13 00:05:38;;;;;;;5.33;4.70;;;9.30;93.90;;;;;;5057778;28;20192;-89
2022/04/13 00:08:07;;;;;;;5.17;4.57;;;9.20;93.90;;;;;;5075923;28;20178;-88
2022/04/13 00:10:36;;;;;;;5.43;4.83;;;9.20;93.90;;;;;;5075969;28;20313;-88
2022/04/13 00:13:03;;;;;;;5.23;4.40;;;9.20;94.00;;;;;;5076035;28;20186;-87
2022/04/13 00:15:29;;;;;;;5.17;4.67;;;9.20;93.90;;;;;;5076692;28;20260;-87
2022/04/13 00:17:54;;;;;;;4.77;4.43;;;9.20;94.10;;;;;;5075972;28;20648;-88
2022/04/13 00:20:21;;;;;;;6.97;4.63;;;9.20;94.00;;;;;;5075562;28;20170;-89
2022/04/13 00:22:47;;;;;;;5.10;4.70;;;9.20;94.10;;;;;;5075378;28;20180;-86
2022/04/13 00:25:13;;;;;;;5.03;4.57;;;9.10;94.20;;;;;;5057705;28;20177;-89
2022/04/13 00:27:41;;;;;;;8.60;5.00;;;9.10;94.10;;;;;;5075476;28;20189;-86
2022/04/13 00:30:07;;;;;;;5.40;4.90;;;9.10;94.20;;;;;;5075183;28;20624;-86
2022/04/13 00:32:33;;;;;;;5.57;4.33;;;9.10;94.40;;;;;;5075106;28;20581;-85
2022/04/13 00:35:04;;;;;;;5.30;4.80;;;9.10;94.30;;;;;;5057159;28;20182;-85
2022/04/13 00:37:30;;;;;;;5.80;5.30;;;9.10;94.40;;;;;;5075035;28;20203;-85
2022/04/13 00:39:56;;;;;;;6.37;4.50;;;9.00;94.40;;;;;;5075335;28;20228;-86
2022/04/13 00:42:22;;;;;;;7.13;4.87;;;9.10;94.40;;;;;;5075251;28;20556;-85
2022/04/13 00:44:48;;;;;;;8.60;4.83;;;9.10;94.30;;;;;;5074859;28;20224;-86
2022/04/13 00:47:14;;;;;;;5.23;4.70;;;9.10;94.40;;;;;;5056901;28;20182;-87
2022/04/13 00:49:40;;;;;;;5.23;4.80;;;9.00;94.40;;;;;;5075018;28;20174;-88
2022/04/13 00:52:07;;;;;;;5.10;4.70;;;9.00;94.90;;;;;;5075955;28;20178;-86
2022/04/13 00:54:34;;;;;;;6.60;4.90;;;9.00;94.50;;;;;;5057979;28;20591;-89
2022/04/13 00:57:08;;;;;;;5.37;4.87;;;8.90;94.70;;;;;;5074787;28;20216;-86
2022/04/13 00:59:37;;;;;;;6.73;4.20;;;8.80;94.70;;;;;;5074756;28;20157;-86
2022/04/13 01:02:05;;;;;;;5.30;4.80;;;8.80;94.70;;;;;;5074569;28;20176;-87
2022/04/13 01:04:34;;;;;;;4.57;4.27;;;8.60;95.00;;;;;;5074671;28;20627;-86
2022/04/13 01:07:02;;;;;;;5.00;4.60;;;8.50;95.20;;;;;;5074391;28;20186;-86
2022/04/13 01:09:30;;;;;;;5.17;4.67;;;8.60;95.30;;;;;;5074156;28;20217;-86
2022/04/13 01:11:56;;;;;;;5.40;4.90;;;8.70;95.20;;;;;;5076244;28;20170;-86
2022/04/13 01:14:22;;;;;;;5.63;4.70;;;8.60;95.30;;;;;;5074398;28;20172;-85
2022/04/13 01:16:47;;;;;;;5.00;4.50;;;8.60;95.40;;;;;;5074078;28;20608;-86
2022/04/13 01:19:17;;;;;;;4.80;4.27;;;8.60;95.30;;;;;;5074191;28;20271;-85
2022/04/13 01:21:52;;;;;;;6.00;4.73;;;8.60;95.30;;;;;;5074230;28;20200;-86
2022/04/13 01:24:19;;;;;;;4.77;4.37;;;8.60;95.40;;;;;;5056288;28;20184;-88
2022/04/13 01:26:45;;;;;;;5.03;4.63;;;8.50;95.50;;;;;;5074206;28;20476;-89
2022/04/13 01:29:12;;;;;;;6.80;4.33;;;8.50;95.70;;;;;;5056233;28;20177;-89
2022/04/13 01:31:39;;;;;;;4.57;4.17;;;8.50;95.70;;;;;;5056210;28;20189;-89
2022/04/13 01:34:06;;;;;;;6.57;4.87;;;8.50;95.70;;;;;;5074240;28;20300;-85
2022/04/13 01:36:36;;;;;;;4.90;4.50;;;8.60;95.50;;;;;;5073849;28;20173;-85
2022/04/13 01:39:04;;;;;;;4.63;4.20;;;8.60;95.60;;;;;;5073821;28;20644;-85
2022/04/13 01:41:30;;;;;;;5.23;4.63;;;8.60;95.60;;;;;;5074017;28;20507;-85
2022/04/13 01:43:56;;;;;;;5.33;4.83;;;8.60;95.70;;;;;;5073797;28;20173;-89
2022/04/13 01:46:22;;;;;;;4.80;4.50;;;8.60;95.70;;;;;;5073803;28;20169;-89
2022/04/13 01:48:48;;;;;;;5.43;4.93;;;8.50;95.70;;;;;;5073906;28;20570;-88
2022/04/13 01:51:14;;;;;;;8.73;5.43;;;8.50;95.70;;;;;;5073858;28;20176;-87
2022/04/13 01:53:40;;;;;;;4.93;4.53;;;8.40;95.80;;;;;;5073906;28;20221;-89
2022/04/13 01:56:06;;;;;;;6.30;4.90;;;8.40;95.90;;;;;;5074223;28;20197;-89
2022/04/13 01:58:32;;;;;;;5.23;4.73;;;8.30;96.00;;;;;;5075475;28;20236;-88
2022/04/13 02:00:58;;;;;;;4.60;4.20;;;8.40;96.00;;;;;;5073734;28;20208;-85
2022/04/13 02:03:25;;;;;;;4.80;4.47;;;8.30;95.90;;;;;;5056011;28;20177;-87
2022/04/13 02:05:52;;;;;;;5.63;4.83;;;8.20;96.10;;;;;;5074073;28;20161;-87
2022/04/13 02:08:19;;;;;;;5.33;4.83;;;8.20;96.30;;;;;;5073382;28;20178;-86
2022/04/13 02:10:45;;;;;;;4.80;4.40;;;8.10;96.30;;;;;;5075736;28;20701;-86
2022/04/13 02:13:11;;;;;;;4.80;4.47;;;8.10;96.30;;;;;;5077496;28;20169;-86
2022/04/13 02:15:38;;;;;;;6.97;4.80;;;8.20;96.30;;;;;;5052048;28;20628;-88
2022/04/13 02:18:05;;;;;;;5.10;4.60;;;8.10;96.40;;;;;;5072766;28;20558;-89
2022/04/13 02:20:31;;;;;;;5.07;4.57;;;8.10;96.40;;;;;;5055095;28;20173;-87
2022/04/13 02:22:57;;;;;;;4.90;4.50;;;8.10;96.50;;;;;;5083214;28;20218;-85
2022/04/13 02:25:22;;;;;;;4.80;4.40;;;8.00;96.60;;;;;;5074767;28;20172;-85
2022/04/13 02:27:48;;;;;;;5.73;4.63;;;8.00;96.70;;;;;;5084244;28;20192;-88
2022/04/13 02:30:15;;;;;;;7.50;5.07;;;8.00;96.70;;;;;;5074757;28;20184;-89
2022/04/13 02:32:45;;;;;;;4.83;4.40;;;8.00;96.80;;;;;;5074105;28;20203;-89
2022/04/13 02:35:13;;;;;;;5.40;4.63;;;7.90;96.90;;;;;;5078654;28;20615;-86
2022/04/13 02:37:40;;;;;;;6.73;5.00;;;7.90;96.90;;;;;;5073712;28;20210;-86
2022/04/13 02:40:09;;;;;;;4.90;4.50;;;8.00;97.00;;;;;;5073938;28;20259;-85
2022/04/13 02:42:36;;;;;;;4.83;4.53;;;8.00;96.90;;;;;;5074316;28;20256;-86
2022/04/13 02:45:06;;;;;;;7.60;4.70;;;8.00;97.10;;;;;;5076292;28;20169;-86
2022/04/13 02:47:36;;;;;;;5.10;4.80;;;8.00;97.00;;;;;;5085192;28;20187;-85
2022/04/13 02:50:04;;;;;;;4.70;4.30;;;7.90;97.00;;;;;;5080206;28;20179;-85
2022/04/13 02:52:30;;;;;;;5.00;4.60;;;7.90;97.00;;;;;;5085016;28;20175;-85
2022/04/13 02:54:56;;;;;;;5.20;4.80;;;7.90;97.10;;;;;;5056626;28;20183;-86
2022/04/13 02:57:22;;;;;;;5.00;4.60;;;7.80;97.20;;;;;;5085389;28;20196;-86
2022/04/13 02:59:48;;;;;;;5.00;4.70;;;7.70;97.40;;;;;;5091027;28;20187;-86
2022/04/13 03:02:15;;;;;;;4.93;4.53;;;7.70;97.40;;;;;;5085003;28;20181;-86
2022/04/13 03:04:43;;;;;;;5.33;4.27;;;7.70;97.50;;;;;;5076818;28;20254;-86
2022/04/13 03:07:11;;;;;;;5.23;4.63;;;7.70;97.50;;;;;;5073498;28;20179;-86
2022/04/13 03:09:37;;;;;;;5.23;4.83;;;7.70;97.50;;;;;;5073248;28;20237;-86
2022/04/13 03:12:04;;;;;;;5.07;4.57;;;7.70;97.60;;;;;;5073603;28;20177;-86
2022/04/13 03:14:30;;;;;;;5.17;4.67;;;7.70;97.60;;;;;;5072718;28;20179;-87
2022/04/13 03:16:56;;;;;;;4.27;3.97;;;7.70;97.50;;;;;;5072571;28;20193;-86
2022/04/13 03:19:21;;;;;;;4.93;4.50;;;7.70;97.70;;;;;;5076301;28;20264;-85
2022/04/13 03:21:51;;;;;;;5.30;4.80;;;7.80;97.50;;;;;;5076479;28;20168;-87
2022/04/13 03:24:17;;;;;;;5.63;5.07;;;7.70;97.60;;;;;;5076304;28;20171;-89
2022/04/13 03:26:43;;;;;;;5.10;4.70;;;7.70;97.70;;;;;;5076244;28;20219;-87
2022/04/13 03:29:09;;;;;;;5.10;4.37;;;7.60;97.60;;;;;;5075889;28;20191;-87
2022/04/13 03:31:35;;;;;;;7.03;4.60;;;7.60;97.70;;;;;;5058496;28;20545;-89
2022/04/13 03:34:02;;;;;;;4.70;4.30;;;7.50;97.80;;;;;;5077147;28;20177;-86
2022/04/13 03:36:28;;;;;;;4.83;4.33;;;7.30;98.00;;;;;;5060900;28;20185;-87
2022/04/13 03:38:53;;;;;;;5.40;4.30;;;7.30;98.10;;;;;;5059997;28;20546;-85
2022/04/13 03:41:19;;;;;;;5.30;4.47;;;7.40;98.00;;;;;;5076251;28;20257;-87
2022/04/13 03:43:45;;;;;;;4.57;4.20;;;7.30;98.10;;;;;;5076339;28;20179;-89
2022/04/13 03:46:11;;;;;;;5.13;4.53;;;7.30;98.20;;;;;;5059510;28;20179;-89
2022/04/13 03:48:36;;;;;;;4.60;4.30;;;7.30;98.20;;;;;;5079684;28;20619;-89
2022/04/13 03:51:02;;;;;;;4.33;4.03;;;7.30;98.20;;;;;;5075528;28;20639;-85
2022/04/13 03:53:28;;;;;;;4.57;4.17;;;7.40;98.30;;;;;;5075425;28;20175;-85
2022/04/13 03:55:54;;;;;;;6.47;4.53;;;7.30;98.40;;;;;;5075865;28;20545;-86
2022/04/13 03:58:20;;;;;;;4.70;4.40;;;7.20;98.60;;;;;;5075011;28;20259;-85
2022/04/13 04:00:46;;;;;;;4.90;4.40;;;7.20;98.60;;;;;;5057823;28;20210;-86
2022/04/13 04:03:12;;;;;;;5.33;4.27;;;7.10;98.70;;;;;;5075911;28;20182;-85
2022/04/13 04:05:38;;;;;;;4.10;3.77;;;7.10;98.80;;;;;;5075663;28;20176;-86
2022/04/13 04:08:04;;;;;;;4.40;3.87;;;7.00;99.00;;;;;;5075605;28;20192;-86
2022/04/13 04:10:30;;;;;;;4.40;4.00;;;7.00;99.10;;;;;;5075486;28;20314;-88
2022/04/13 04:12:56;;;;;;;5.00;4.47;;;7.00;99.00;;;;;;5075646;28;20178;-86
2022/04/13 04:15:22;;;;;;;4.67;4.13;;;7.00;98.90;;;;;;5076213;28;20172;-86
2022/04/13 04:17:48;;;;;;;4.47;4.17;;;7.00;99.00;;;;;;5076775;28;20209;-86
2022/04/13 04:20:14;;;;;;;4.20;3.90;;;7.00;99.00;;;;;;5075375;28;20538;-86
2022/04/13 04:22:40;;;;;;;5.97;4.17;;;7.00;99.00;;;;;;5075478;28;20167;-88
2022/04/13 04:25:08;;;;;;;4.70;4.30;;;6.90;99.20;;;;;;5075346;28;20172;-87
2022/04/13 04:27:33;;;;;;;4.67;4.27;;;6.90;99.30;;;;;;5075382;28;20180;-86
2022/04/13 04:29:59;;;;;;;8.37;4.30;;;7.00;99.30;;;;;;5076591;28;20168;-86
2022/04/13 04:32:25;;;;;;;4.87;4.43;;;7.00;99.30;;;;;;5057452;28;20212;-86
2022/04/13 04:34:52;;;;;;;10.87;5.13;;;7.00;99.20;;;;;;5075172;28;20171;-85
2022/04/13 04:37:17;;;;;;;5.40;4.57;;;7.10;99.30;;;;;;5075175;28;20217;-85
2022/04/13 04:39:46;;;;;;;4.83;4.47;;;7.00;99.30;;;;;;5075429;28;20247;-84
2022/04/13 04:42:11;;;;;;;4.60;4.30;;;7.00;99.30;;;;;;5073518;28;20266;-86
2022/04/13 04:44:37;;;;;;;5.67;5.17;;;7.10;99.40;;;;;;5074476;28;20253;-85
2022/04/13 04:47:03;;;;;;;5.17;4.20;;;7.00;99.30;;;;;;5073855;28;20183;-85
2022/04/13 04:49:29;;;;;;;7.73;4.23;;;7.00;99.30;;;;;;5056984;28;20176;-85
2022/04/13 04:51:55;;;;;;;6.40;4.33;;;7.00;99.40;;;;;;5074816;28;20183;-85
2022/04/13 04:54:21;;;;;;;5.17;4.67;;;7.00;99.40;;;;;;5074616;28;20632;-85
2022/04/13 04:56:47;;;;;;;7.47;4.23;;;7.10;99.40;;;;;;5074307;28;20201;-87
2022/04/13 04:59:15;;;;;;;5.23;4.47;;;7.20;99.30;;;;;;5075309;28;20179;-87
2022/04/13 05:01:41;;;;;;;5.43;4.70;;;7.20;99.20;;;;;;5074714;28;20178;-87
2022/04/13 05:04:07;;;;;;;10.63;4.90;;;7.30;99.30;;;;;;5056338;28;20638;-89
2022/04/13 05:06:33;;;;;;;7.63;4.50;;;7.40;99.10;;;;;;5056411;28;20186;-87
2022/04/13 05:08:59;;;;;;;6.97;4.60;;;7.40;99.10;;;;;;5056429;28;20179;-88
2022/04/13 05:11:25;;;;;;;7.27;4.60;;;7.50;99.00;;;;;;5074592;28;20657;-89
2022/04/13 05:13:51;;;;;;;9.27;4.47;;;7.40;99.00;;;;;;5074175;28;20173;-85
2022/04/13 05:16:18;;;;;;;6.23;5.03;;;7.40;99.00;;;;;;5074020;28;20247;-85
2022/04/13 05:18:48;;;;;;;8.47;4.70;;;7.40;99.00;;;;;;5074028;28;20205;-85
2022/04/13 05:21:14;;;;;;;8.40;5.90;;;7.50;99.00;;;;;;5074283;28;20199;-86
2022/04/13 05:23:41;;;;;;;8.93;5.00;;;7.50;99.00;;;;;;5055989;28;20635;-86
2022/04/13 05:26:07;;;;;;;6.07;4.67;;;7.60;99.00;;;;;;5073819;28;20558;-85
2022/04/13 05:28:33;;;;;;;6.60;4.93;;;7.60;98.90;;;;;;5073412;28;20174;-85
2022/04/13 05:30:59;;;;;;;6.00;5.40;;;7.70;98.90;;;;;;5056978;28;20184;-86
2022/04/13 05:33:24;;;;;;;6.40;5.73;;;7.70;98.80;;;;;;5054976;28;20815;-86
2022/04/13 05:35:51;;;;;;;6.83;5.00;;;7.80;98.80;;;;;;5073321;28;20178;-86
2022/04/13 05:38:17;;;;;;;8.40;5.20;;;7.80;98.70;;;;;;5074480;28;20206;-86
2022/04/13 05:40:43;;;;;;;9.83;5.33;;;7.90;98.70;;;;;;5073892;28;20172;-86
2022/04/13 05:43:09;;;;;;;5.50;4.97;;;8.00;98.60;;;;;;5075355;28;20184;-87
2022/04/13 05:45:35;;;;;;;7.17;5.40;;;8.20;98.50;;;;;;5073692;28;20169;-86
2022/04/13 05:48:01;;;;;;;7.97;5.23;;;8.20;98.40;;;;;;5055537;28;20278;-85
2022/04/13 05:50:27;;;;;;;6.30;5.30;;;8.30;98.30;;;;;;5055245;28;20175;-85
2022/04/13 05:52:53;;;;;;;7.90;5.07;;;8.30;98.10;;;;;;5073905;28;20180;-85
2022/04/13 05:55:19;;;;;;;5.63;5.13;;;8.40;98.10;;;;;;5073425;28;20173;-85
2022/04/13 05:57:46;;;;;;;6.93;4.90;;;8.50;97.80;;;;;;5074113;28;20659;-86
2022/04/13 06:00:12;;;;;;;10.37;5.10;;;8.60;97.50;;;;;;5073449;28;20177;-87
2022/04/13 06:02:39;;;;;;;7.37;5.30;;;8.70;97.30;;;;;;5055432;28;20234;-85
2022/04/13 06:05:06;;;;;;;5.40;4.90;;;8.80;97.50;;;;;;5073352;28;20173;-85
2022/04/13 06:07:32;;;;;;;7.03;5.13;;;8.90;97.10;;;;;;5073181;28;20174;-85
2022/04/13 06:10:05;;;;;;;10.23;4.97;;;9.00;97.00;;;;;;5073311;28;20229;-85
2022/04/13 06:12:32;;;;;;;6.47;5.40;;;9.10;96.60;;;;;;5074333;28;20185;-86
2022/04/13 06:15:18;;;;;;;5.83;5.33;;;9.20;96.10;;;;;;5073409;28;20688;-85
2022/04/13 06:17:44;;;;;;;6.53;5.50;;;9.30;96.00;;;;;;5073304;28;20656;-85
2022/04/13 06:20:11;;;;;;;7.07;6.13;;;9.50;95.70;;;;;;5073183;28;20308;-85
2022/04/13 06:22:41;;;;;;;12.07;6.20;;;9.50;95.60;;;;;;5073576;28;20237;-85
2022/04/13 06:25:09;;;;;;;6.40;5.60;;;9.50;95.50;;;;;;5073472;28;20184;-85
2022/04/13 06:27:35;;;;;;;8.20;5.13;;;9.70;95.40;;;;;;5073383;28;20177;-86
2022/04/13 06:30:01;;;;;;;6.10;5.50;;;9.70;95.40;;;;;;5073614;28;20202;-86
2022/04/13 06:32:43;;;;;;;9.27;6.17;;;9.80;95.20;;;;;;5073653;28;20176;-85
2022/04/13 06:35:15;;;;;;;5.80;5.23;;;9.90;95.10;;;;;;5073427;28;20222;-84
2022/04/13 06:37:43;;;;;;;5.33;4.93;;;10.00;94.20;;;;;;5074258;28;20195;-86
2022/04/13 06:40:10;;;;;;;5.33;4.83;;;10.10;94.20;;;;;;5055428;28;20265;-87
2022/04/13 06:42:40;;;;;;;5.60;5.10;;;10.20;93.90;;;;;;5073807;28;20183;-89
2022/04/13 06:45:08;;;;;;;5.93;5.47;;;10.30;93.60;;;;;;5073598;28;20174;-88
2022/04/13 06:47:34;;;;;;;8.20;5.13;;;10.40;93.60;;;;;;5073829;28;20175;-88
2022/04/13 06:50:00;;;;;;;5.40;4.90;;;10.50;93.60;;;;;;5073531;28;20206;-89
2022/04/13 06:52:25;;;;;;;5.90;5.23;;;10.50;93.80;;;;;;5074707;28;20669;-87
2022/04/13 06:54:51;;;;;;;7.07;5.93;;;10.60;93.50;;;;;;5059247;28;20184;-86
2022/04/13 06:57:17;;;;;;;7.93;5.30;;;10.70;93.10;;;;;;5077308;28;20191;-89
2022/04/13 06:59:43;;;;;;;7.33;5.47;;;10.80;93.00;;;;;;5077255;28;20587;-84
2022/04/13 07:02:12;;;;;;;9.17;5.90;;;10.90;92.80;;;;;;5077230;28;20173;-84
2022/04/13 07:04:39;;;;;;;5.87;5.33;;;11.00;92.80;;;;;;5078421;28;20169;-85
2022/04/13 07:07:05;;;;;;;9.10;5.57;;;11.10;92.70;;;;;;5086628;28;20171;-87
2022/04/13 07:09:31;;;;;;;22.20;6.13;;;11.20;92.80;;;;;;5095466;28;20220;-84
2022/04/13 07:11:57;;;;;;;15.17;5.90;;;11.20;92.30;;;;;;5092304;28;20167;-86
2022/04/13 07:14:23;;;;;;;13.97;5.80;;;11.30;92.10;;;;;;5090824;28;20201;-88
2022/04/13 07:16:49;;;;;;;9.73;6.00;;;11.40;92.20;;;;;;5089259;28;20607;-87
2022/04/13 07:19:15;;;;;;;6.60;5.53;;;11.50;91.90;;;;;;5098902;28;20215;-85
2022/04/13 07:21:41;;;;;;;5.80;5.30;;;11.50;91.70;;;;;;5097851;28;20172;-88
2022/04/13 07:24:07;;;;;;;5.47;5.00;;;11.60;91.60;;;;;;5079720;28;20175;-88
2022/04/13 07:26:33;;;;;;;8.20;5.33;;;11.70;91.40;;;;;;5080782;28;20173;-89
2022/04/13 07:28:59;;;;;;;5.23;4.83;;;11.70;91.20;;;;;;5080871;28;20180;-89
2022/04/13 07:31:25;;;;;;;6.07;5.03;;;11.80;91.10;;;;;;5063199;28;20173;-85
2022/04/13 07:33:51;;;;;;;8.10;5.07;;;11.90;91.10;;;;;;5076405;28;20174;-88
2022/04/13 07:36:17;;;;;;;8.13;5.03;;;11.90;91.10;;;;;;5077714;28;20177;-87
2022/04/13 07:38:43;;;;;;;16.70;5.73;;;12.00;91.00;;;;;;5076139;28;20255;-88
2022/04/13 07:41:09;;;;;;;18.50;5.27;;;12.20;90.90;;;;;;5076568;28;20246;-85
2022/04/13 07:43:35;;;;;;;11.60;5.07;;;12.30;91.00;;;;;;5076511;28;20170;-85
2022/04/13 07:46:01;;;;;;;9.23;5.10;;;12.30;90.70;;;;;;5058591;28;20210;-85
2022/04/13 07:48:29;;;;;;;6.23;5.00;;;12.40;90.40;;;;;;5075898;28;20177;-86
2022/04/13 07:50:55;;;;;;;5.70;5.20;;;12.40;90.00;;;;;;5076282;28;20168;-87
2022/04/13 07:53:21;;;;;;;9.50;5.53;;;12.40;89.90;;;;;;5077008;28;20174;-87
2022/04/13 07:55:47;;;;;;;4.90;4.50;;;12.60;90.20;;;;;;5076295;28;20168;-88
2022/04/13 07:58:14;;;;;;;8.80;5.37;;;12.50;90.00;;;;;;5076431;28;20683;-87
2022/04/13 08:00:40;;;;;;;5.63;5.07;;;12.60;89.20;;;;;;5058626;28;20185;-86
2022/04/13 08:03:06;;;;;;;5.10;4.70;;;12.70;89.30;;;;;;5076908;28;20265;-88
2022/04/13 08:05:32;;;;;;;10.80;5.07;;;12.80;88.90;;;;;;5057315;28;20230;-87
2022/04/13 08:07:58;;;;;;;7.03;5.17;;;12.90;88.40;;;;;;5057915;28;20181;-88
2022/04/13 08:10:24;;;;;;;6.60;5.50;;;13.00;88.80;;;;;;5076099;28;20229;-86
2022/04/13 08:12:50;;;;;;;6.10;5.50;;;13.10;89.30;;;;;;5077222;28;20536;-87
2022/04/13 08:15:16;;;;;;;6.17;5.50;;;13.20;89.70;;;;;;5075693;28;20174;-87
2022/04/13 08:17:42;;;;;;;5.30;4.73;;;13.20;88.90;;;;;;5075603;28;20210;-88
2022/04/13 08:20:11;;;;;;;6.33;5.20;;;13.10;88.20;;;;;;5057846;28;20183;-88
2022/04/13 08:22:38;;;;;;;7.30;5.40;;;13.10;88.00;;;;;;5057821;28;20205;-86
2022/04/13 08:25:04;;;;;;;6.80;5.50;;;13.20;88.10;;;;;;5075852;28;20712;-86
2022/04/13 08:27:30;;;;;;;7.37;5.20;;;13.30;87.70;;;;;;5076291;28;20171;-88
2022/04/13 08:29:56;;;;;;;5.77;5.30;;;13.50;87.80;;;;;;5075714;28;20177;-87
2022/04/13 08:32:22;;;;;;;7.77;5.57;;;13.40;87.80;;;;;;5057271;28;20647;-89
2022/04/13 08:34:52;;;;;;;10.03;5.47;;;13.50;88.20;;;;;;5057672;28;20542;-87
2022/04/13 08:37:19;;;;;;;6.00;5.50;;;13.50;87.90;;;;;;5075593;28;20210;-89
2022/04/13 08:39:45;;;;;;;5.87;5.30;;;13.50;88.00;;;;;;5075543;28;20171;-87
2022/04/13 08:42:27;;;;;;;7.67;5.30;;;13.50;87.90;;;;;;5075100;28;20175;-86
2022/04/13 08:44:53;;;;;;;7.27;5.40;;;13.60;86.70;;;;;;5075261;28;20663;-85
2022/04/13 08:47:23;;;;;;;5.97;5.37;;;13.60;86.80;;;;;;5075288;28;20177;-86
2022/04/13 08:49:52;;;;;;;14.43;5.73;;;13.60;87.60;;;;;;5057421;28;20191;-86
2022/04/13 08:52:26;;;;;;;5.87;5.27;;;13.80;87.10;;;;;;5075150;28;20170;-86
2022/04/13 08:55:11;;;;;;;5.80;5.20;;;13.90;87.00;;;;;;5056953;28;20538;-87
2022/04/13 08:57:38;;;;;;;6.47;5.83;;;13.80;87.50;;;;;;5075211;28;20206;-87
2022/04/13 09:00:11;;;;;;;7.27;5.50;;;13.90;88.10;;;;;;5074955;28;20167;-87
2022/04/13 09:03:14;;;;;;;8.33;5.40;;;14.00;88.10;;;;;;5074604;28;20172;-88
2022/04/13 09:05:43;;;;;;;17.23;5.50;;;14.10;87.90;;;;;;5056649;28;20174;-88
2022/04/13 09:08:17;;;;;;;7.40;6.67;;;14.10;87.30;;;;;;5075435;28;20178;-88
2022/04/13 09:10:45;;;;;;;14.20;6.87;;;14.30;86.50;;;;;;5056579;28;20701;-88
2022/04/13 09:13:12;;;;;;;7.83;6.10;;;14.30;86.60;;;;;;5074877;28;20198;-88
2022/04/13 09:15:43;;;;;;;9.70;7.27;;;14.30;86.30;;;;;;5074658;28;20189;-87
2022/04/13 09:18:10;;;;;;;6.70;6.10;;;14.30;85.70;;;;;;5075106;28;20632;-90
2022/04/13 09:20:37;;;;;;;7.13;5.80;;;14.30;87.00;;;;;;5074859;28;20633;-87
2022/04/13 09:23:04;;;;;;;8.20;5.83;;;14.50;85.70;;;;;;5074854;28;20595;-86
2022/04/13 09:25:31;;;;;;;6.07;5.47;;;14.60;85.90;;;;;;5076410;28;20174;-86
2022/04/13 09:28:02;;;;;;;6.40;5.80;;;14.70;85.50;;;;;;5058269;28;20173;-87
2022/04/13 09:30:30;;;;;;;5.93;5.40;;;14.70;86.20;;;;;;5075167;28;20635;-86
2022/04/13 09:32:57;;;;;;;7.50;5.27;;;14.80;86.30;;;;;;5074050;28;20164;-87
2022/04/13 09:35:23;;;;;;;7.77;6.03;;;14.80;86.60;;;;;;5074005;28;20217;-85
2022/04/13 09:37:49;;;;;;;7.63;5.77;;;14.90;85.60;;;;;;5074043;28;20207;-85
2022/04/13 09:40:31;;;;;;;6.60;5.67;;;14.90;85.00;;;;;;5075741;28;20168;-86
2022/04/13 09:43:13;;;;;;;8.73;6.70;;;15.00;86.90;;;;;;5074942;28;20265;-85
2022/04/13 09:45:45;;;;;;;6.23;5.63;;;15.10;86.30;;;;;;5056793;28;20174;-86
2022/04/13 09:48:13;;;;;;;6.30;5.70;;;15.10;86.30;;;;;;5074270;28;20225;-86
2022/04/13 09:50:41;;;;;;;8.37;5.60;;;15.20;85.50;;;;;;5074607;28;20695;-88
2022/04/13 09:53:08;;;;;;;7.47;5.30;;;15.20;84.60;;;;;;5055737;28;20175;-86
2022/04/13 09:55:39;;;;;;;5.87;5.37;;;15.30;85.50;;;;;;5073784;28;20159;-89
2022/04/13 09:58:16;;;;;;;6.27;5.20;;;15.40;84.40;;;;;;5073660;28;20203;-89
2022/04/13 10:00:44;;;;;;;8.20;5.10;;;15.40;85.70;;;;;;5073770;28;20657;-86
2022/04/13 10:03:11;;;;;;;5.60;5.20;;;15.50;86.20;;;;;;5073704;28;20302;-86
2022/04/13 10:05:38;;;;;;;9.07;5.00;;;15.50;85.60;;;;;;5073585;28;20174;-89
2022/04/13 10:08:09;;;;;;;6.27;5.20;;;15.60;85.30;;;;;;5073982;28;20163;-89
2022/04/13 10:10:39;;;;;;;5.33;4.83;;;15.60;85.50;;;;;;5073986;28;20271;-89
2022/04/13 10:13:05;;;;;;;6.13;4.97;;;15.60;86.30;;;;;;5056560;28;20671;-88
2022/04/13 10:15:30;;;;;;;5.00;4.60;;;15.70;85.90;;;;;;5073815;28;20168;-88
2022/04/13 10:17:58;;;;;;;4.83;4.43;;;15.80;86.40;;;;;;5073854;28;20195;-89
2022/04/13 10:20:48;;;;;;;5.00;4.60;;;15.90;85.90;;;;;;5073986;28;20531;-88
2022/04/13 10:23:15;;;;;;;6.60;4.77;;;15.90;85.40;;;;;;5073237;28;20184;-85
2022/04/13 10:25:42;;;;;;;8.20;4.90;;;16.10;84.40;;;;;;5056955;28;20172;-85
2022/04/13 10:28:12;;;;;;;6.33;5.27;;;16.10;82.50;;;;;;5075842;28;20171;-86
2022/04/13 10:30:42;;;;;;;7.00;4.90;;;16.20;81.70;;;;;;5077725;28;20174;-85
2022/04/13 10:33:13;;;;;;;5.20;4.47;;;16.10;81.40;;;;;;5077850;28;20214;-85
2022/04/13 10:35:41;;;;;;;5.10;4.60;;;16.10;81.80;;;;;;5059814;28;20176;-86
2022/04/13 10:38:07;;;;;;;9.70;5.00;;;16.20;83.70;;;;;;5059296;28;20210;-85
2022/04/13 10:40:42;;;;;;;6.87;4.80;;;16.20;83.20;;;;;;5077588;28;20216;-86
2022/04/13 10:43:12;;;;;;;5.07;4.63;;;16.30;81.50;;;;;;5077336;28;20261;-86
2022/04/13 10:45:45;;;;;;;5.70;5.20;;;16.40;81.80;;;;;;5077689;28;20565;-86
2022/04/13 10:48:11;;;;;;;6.60;5.10;;;16.40;80.50;;;;;;5077602;28;20156;-86
2022/04/13 10:50:57;;;;;;;6.33;4.90;;;16.40;80.50;;;;;;5077403;28;20170;-86
2022/04/13 10:53:29;;;;;;;5.87;5.10;;;16.40;80.70;;;;;;5078021;28;20163;-88
2022/04/13 10:56:01;;;;;;;5.60;5.10;;;16.50;82.20;;;;;;5059893;28;20178;-85
2022/04/13 10:58:43;;;;;;;6.30;5.70;;;16.70;81.60;;;;;;5078250;28;20197;-86
2022/04/13 11:01:15;;;;;;;8.93;5.80;;;16.70;82.20;;;;;;5077753;28;20169;-85
2022/04/13 11:03:42;;;;;;;6.63;6.03;;;16.80;81.70;;;;;;5076981;28;20155;-86
2022/04/13 11:06:10;;;;;;;6.20;5.70;;;16.80;82.10;;;;;;5077213;28;20171;-86
2022/04/13 11:08:51;;;;;;;6.20;5.70;;;16.90;82.20;;;;;;5077041;28;20258;-86
2022/04/13 11:11:20;;;;;;;6.77;5.70;;;16.90;82.30;;;;;;5076598;28;20215;-89
2022/04/13 11:13:48;;;;;;;6.80;6.20;;;17.00;81.40;;;;;;5077070;28;20201;-86
2022/04/13 11:16:22;;;;;;;6.73;6.03;;;17.00;81.10;;;;;;5058832;28;20217;-86
2022/04/13 11:19:06;;;;;;;10.47;6.90;;;17.00;81.50;;;;;;5077256;28;20557;-86
2022/04/13 11:21:54;;;;;;;7.17;6.47;;;17.10;82.40;;;;;;5077905;28;20228;-86
2022/04/13 11:24:32;;;;;;;7.00;6.30;;;17.20;81.90;;;;;;5077196;28;20261;-86
2022/04/13 11:26:59;;;;;;;6.13;5.63;;;17.20;79.40;;;;;;5076420;28;20179;-86
2022/04/13 11:29:52;;;;;;;6.77;6.07;;;17.30;78.80;;;;;;5076614;28;20268;-87
2022/04/13 11:32:25;;;;;;;7.50;6.87;;;17.30;78.90;;;;;;5042849;28;20237;-90
2022/04/13 11:34:51;;;;;;;6.63;6.03;;;17.30;78.30;;;;;;5058488;28;20512;-86
2022/04/13 11:37:19;;;;;;;7.40;6.70;;;17.30;80.00;;;;;;5076945;28;20264;-90
2022/04/13 11:39:57;;;;;;;6.73;6.13;;;17.40;79.60;;;;;;5075877;28;20194;-90
2022/04/13 11:42:25;;;;;;;9.67;6.30;;;17.40;80.50;;;;;;5077452;28;20160;-89
2022/04/13 11:45:00;;;;;;;6.77;6.17;;;17.50;79.20;;;;;;5076638;28;20174;-86
2022/04/13 11:47:36;;;;;;;7.27;6.57;;;17.50;79.60;;;;;;5087365;28;20167;-85
2022/04/13 11:50:18;;;;;;;7.47;6.70;;;17.60;77.80;;;;;;5092773;28;20158;-86
2022/04/13 11:53:05;;;;;;;7.57;6.97;;;17.60;77.60;;;;;;5083259;28;20166;-87
2022/04/13 11:55:45;;;;;;;8.10;7.30;;;17.60;78.20;;;;;;5079962;28;20165;-88
2022/04/13 11:58:13;;;;;;;9.20;8.20;;;17.60;78.60;;;;;;5080003;28;20285;-85
2022/04/13 12:00:43;;;;;;;8.27;7.50;;;17.50;78.40;;;;;;5088816;28;20173;-86
2022/04/13 12:03:13;;;;;;;7.77;7.10;;;17.60;79.90;;;;;;5090056;28;20174;-87
2022/04/13 12:05:41;;;;;;;9.07;7.13;;;17.60;79.80;;;;;;5062191;28;20181;-89
2022/04/13 12:08:15;;;;;;;8.30;7.20;;;17.70;79.90;;;;;;5077274;28;20632;-88
2022/04/13 12:10:49;;;;;;;10.13;7.70;;;17.80;80.60;;;;;;5076794;28;20775;-88
2022/04/13 12:13:16;;;;;;;8.37;7.47;;;17.80;80.50;;;;;;5076951;28;20163;-88
2022/04/13 12:15:47;;;;;;;9.07;8.27;;;17.80;80.00;;;;;;5077382;28;20172;-87
2022/04/13 12:18:13;;;;;;;9.87;8.87;;;17.80;79.00;;;;;;5078044;28;20203;-86
2022/04/13 12:20:40;;;;;;;9.03;8.10;;;17.80;79.40;;;;;;5089693;28;20172;-86
2022/04/13 12:23:16;;;;;;;9.03;8.23;;;17.80;79.50;;;;;;5087957;28;20185;-84
2022/04/13 12:25:48;;;;;;;9.33;8.57;;;17.80;79.80;;;;;;5060447;28;20174;-87
2022/04/13 12:28:15;;;;;;;10.87;9.07;;;17.90;80.30;;;;;;5076479;28;20228;-87
2022/04/13 12:30:41;;;;;;;9.07;7.97;;;17.90;80.10;;;;;;5076727;28;20215;-86
2022/04/13 12:33:21;;;;;;;8.50;7.60;;;17.90;81.80;;;;;;5058795;28;20281;-87
2022/04/13 12:35:54;;;;;;;7.00;6.40;;;17.90;79.50;;;;;;5076208;28;20222;-86
2022/04/13 12:38:27;;;;;;;8.80;7.90;;;18.00;80.30;;;;;;5076312;28;20207;-87
2022/04/13 12:41:15;;;;;;;8.43;7.30;;;18.00;79.20;;;;;;5058110;28;20169;-87
2022/04/13 12:43:44;;;;;;;8.60;7.70;;;18.00;79.20;;;;;;5057841;28;20171;-86
2022/04/13 12:46:19;;;;;;;10.67;8.20;;;18.10;78.80;;;;;;5075249;28;20172;-85
2022/04/13 12:48:51;;;;;;;7.67;7.07;;;18.10;78.40;;;;;;5075412;28;20249;-88
2022/04/13 12:51:17;;;;;;;9.17;8.07;;;18.00;78.40;;;;;;5075267;28;20497;-85
2022/04/13 12:53:55;;;;;;;7.83;7.13;;;18.00;78.40;;;;;;5057408;28;20194;-85
2022/04/13 12:56:27;;;;;;;8.37;7.17;;;17.90;78.40;;;;;;5075061;28;20523;-86